createdAt,value
2022-12-08T00:01:30.376Z,13.63
2022-12-08T00:03:59.507Z,10.15
2022-12-08T00:06:47.567Z,11.15
2022-12-08T00:09:23.118Z,10.40
2022-12-08T00:11:58.968Z,11.98
2022-12-08T00:14:29.395Z,10.57
2022-12-08T00:16:56.788Z,11.95
2022-12-08T00:19:24.227Z,11.23
2022-12-08T00:21:51.805Z,10.70
2022-12-08T00:24:19.802Z,12.85
2022-12-08T00:26:47.069Z,10.43
2022-12-08T00:29:17.372Z,10.80
2022-12-08T00:31:45.181Z,10.32
2022-12-08T00:34:13.958Z,10.18
2022-12-08T00:36:41.746Z,11.05
2022-12-08T00:39:12.722Z,10.60
2022-12-08T00:41:58.669Z,11.20
2022-12-08T00:44:25.996Z,10.65
2022-12-08T00:46:53.113Z,9.57
2022-12-08T00:49:20.595Z,9.52
2022-12-08T00:51:47.749Z,11.88
2022-12-08T00:54:14.985Z,11.50
2022-12-08T00:56:42.135Z,9.52
2022-12-08T00:59:09.341Z,9.48
2022-12-08T01:01:36.684Z,13.27
2022-12-08T01:04:08.503Z,10.63
2022-12-08T01:06:35.859Z,11.80
2022-12-08T01:09:06.573Z,9.63
2022-12-08T01:11:33.968Z,10.70
2022-12-08T01:14:01.162Z,10.38
2022-12-08T01:16:30.883Z,9.57
2022-12-08T01:18:58.901Z,11.07
2022-12-08T01:21:26.272Z,9.82
2022-12-08T01:23:54.617Z,9.85
2022-12-08T01:26:21.819Z,9.18
2022-12-08T01:28:49.357Z,11.75
2022-12-08T01:31:19.521Z,9.85
2022-12-08T01:33:47.065Z,11.35
2022-12-08T01:36:33.486Z,8.65
2022-12-08T01:39:01.386Z,10.23
2022-12-08T01:41:31.674Z,11.32
2022-12-08T01:44:08.781Z,10.80
2022-12-08T01:46:38.672Z,11.35
2022-12-08T01:49:10.891Z,10.40
2022-12-08T01:51:59.351Z,9.93
2022-12-08T01:54:29.856Z,13.73
2022-12-08T01:57:09.737Z,10.98
2022-12-08T01:59:40.176Z,10.98
2022-12-08T02:02:09.137Z,10.93
2022-12-08T02:04:36.311Z,11.90
2022-12-08T02:07:07.757Z,12.05
2022-12-08T02:09:36.837Z,11.20
2022-12-08T02:12:04.411Z,10.10
2022-12-08T02:14:32.274Z,12.77
2022-12-08T02:17:23.566Z,11.77
2022-12-08T02:20:32.841Z,11.90
2022-12-08T02:23:08.039Z,10.15
2022-12-08T02:26:15.472Z,12.20
2022-12-08T02:28:48.366Z,13.73
2022-12-08T02:31:36.019Z,12.15
2022-12-08T02:34:26.750Z,13.02
2022-12-08T02:37:18.615Z,9.80
2022-12-08T02:40:11.405Z,11.75
2022-12-08T02:42:48.861Z,11.00
2022-12-08T02:45:46.007Z,11.30
2022-12-08T02:48:13.149Z,12.05
2022-12-08T02:50:40.311Z,12.98
2022-12-08T02:56:27.059Z,12.32
2022-12-08T02:59:27.706Z,11.43
2022-12-08T03:02:19.028Z,12.18
2022-12-08T03:05:11.409Z,12.35
2022-12-08T03:07:48.205Z,13.43
2022-12-08T03:10:33.530Z,12.52
2022-12-08T03:13:16.088Z,11.60
2022-12-08T03:15:45.519Z,12.45
2022-12-08T03:18:14.923Z,12.55
2022-12-08T03:20:42.092Z,13.40
2022-12-08T03:23:11.072Z,12.52
2022-12-08T03:25:43.287Z,15.97
2022-12-08T03:28:10.476Z,15.45
2022-12-08T03:30:39.460Z,13.80
2022-12-08T03:33:31.650Z,13.63
2022-12-08T03:35:59.815Z,10.90
2022-12-08T03:38:26.930Z,15.02
2022-12-08T03:41:12.922Z,14.65
2022-12-08T03:43:40.079Z,13.85
2022-12-08T03:46:07.277Z,14.63
2022-12-08T03:48:34.493Z,13.57
2022-12-08T03:51:01.634Z,12.18
2022-12-08T03:53:28.785Z,12.70
2022-12-08T03:55:56.055Z,12.32
2022-12-08T03:58:23.199Z,12.55
2022-12-08T04:00:50.335Z,14.25
2022-12-08T04:03:17.515Z,13.93
2022-12-08T04:05:44.754Z,13.25
2022-12-08T04:08:12.081Z,12.88
2022-12-08T04:10:39.390Z,12.73
2022-12-08T04:13:06.504Z,12.90
2022-12-08T04:15:33.656Z,13.65
2022-12-08T04:18:00.814Z,11.75
2022-12-08T04:20:28.005Z,12.27
2022-12-08T04:22:55.098Z,16.65
2022-12-08T04:25:22.371Z,14.32
2022-12-08T04:27:50.425Z,14.00
2022-12-08T04:30:17.621Z,14.52
2022-12-08T04:32:47.562Z,13.23
2022-12-08T04:35:14.874Z,14.80
2022-12-08T04:37:43.227Z,11.23
2022-12-08T04:40:12.098Z,16.02
2022-12-08T04:42:39.352Z,17.85
2022-12-08T04:45:07.269Z,18.67
2022-12-08T04:47:34.572Z,18.20
2022-12-08T04:50:02.077Z,17.90
2022-12-08T04:52:29.739Z,19.63
2022-12-08T04:54:56.901Z,22.08
2022-12-08T04:57:24.276Z,18.77
2022-12-08T04:59:51.405Z,21.05
2022-12-08T05:02:18.660Z,24.77
2022-12-08T05:04:45.890Z,61.33
2022-12-08T05:07:13.057Z,150.35
2022-12-08T05:09:40.173Z,129.88
2022-12-08T05:12:07.552Z,140.15
2022-12-08T05:14:34.728Z,85.53
2022-12-08T05:17:07.823Z,134.77
2022-12-08T05:19:36.678Z,123.45
2022-12-08T05:24:48.300Z,61.20
2022-12-08T05:27:15.760Z,65.47
2022-12-08T05:29:42.943Z,58.78
2022-12-08T05:32:10.167Z,45.90
2022-12-08T05:34:37.310Z,39.78
2022-12-08T05:37:04.627Z,36.67
2022-12-08T05:39:31.802Z,34.38
2022-12-08T05:41:59.615Z,30.25
2022-12-08T05:44:26.982Z,28.80
2022-12-08T05:46:54.193Z,25.45
2022-12-08T05:49:21.329Z,24.85
2022-12-08T05:51:48.494Z,25.88
2022-12-08T05:54:15.643Z,25.73
2022-12-08T05:56:42.775Z,24.13
2022-12-08T05:59:10.111Z,29.42
2022-12-08T06:01:37.379Z,24.08
2022-12-08T06:04:05.055Z,23.75
2022-12-08T06:06:32.288Z,24.85
2022-12-08T06:08:59.476Z,22.50
2022-12-08T06:11:28.924Z,18.02
2022-12-08T06:13:56.810Z,19.17
2022-12-08T06:16:26.207Z,20.75
2022-12-08T06:18:53.666Z,23.35
2022-12-08T06:21:20.940Z,20.90
2022-12-08T06:23:52.660Z,22.77
2022-12-08T06:26:19.914Z,22.08
2022-12-08T06:28:47.048Z,20.17
2022-12-08T06:31:16.475Z,19.83
2022-12-08T06:33:43.800Z,22.15
2022-12-08T06:36:12.713Z,27.70
2022-12-08T06:38:43.307Z,26.65
2022-12-08T06:41:11.325Z,24.83
2022-12-08T06:43:38.739Z,27.38
2022-12-08T06:46:07.788Z,25.52
2022-12-08T06:48:35.247Z,22.70
2022-12-08T06:51:15.659Z,21.63
2022-12-08T06:53:42.933Z,24.83
2022-12-08T06:56:10.354Z,21.25
2022-12-08T06:58:37.556Z,23.55
2022-12-08T07:01:09.919Z,23.15
2022-12-08T07:03:37.880Z,25.52
2022-12-08T07:06:05.489Z,22.38
2022-12-08T07:08:33.928Z,21.08
2022-12-08T07:11:18.007Z,20.40
2022-12-08T07:13:48.362Z,20.55
2022-12-08T07:16:15.661Z,21.42
2022-12-08T07:18:44.202Z,21.90
2022-12-08T07:21:13.109Z,23.58
2022-12-08T07:23:40.327Z,22.67
2022-12-08T07:26:08.742Z,23.23
2022-12-08T07:28:37.877Z,23.40
2022-12-08T07:31:05.783Z,23.33
2022-12-08T07:33:33.888Z,26.05
2022-12-08T07:36:04.057Z,23.63
2022-12-08T07:38:31.434Z,23.27
2022-12-08T07:40:58.664Z,25.15
2022-12-08T07:43:25.843Z,25.30
2022-12-08T07:45:53.113Z,27.67
2022-12-08T07:48:20.409Z,28.17
2022-12-08T07:50:47.673Z,26.70
2022-12-08T07:53:14.989Z,24.65
2022-12-08T07:55:42.824Z,28.42
2022-12-08T07:58:10.799Z,28.15
2022-12-08T08:00:38.046Z,24.55
2022-12-08T08:03:06.227Z,28.88
2022-12-08T08:05:33.542Z,23.73
2022-12-08T08:08:01.722Z,30.13
2022-12-08T08:10:28.935Z,29.33
2022-12-08T08:12:59.595Z,27.35
2022-12-08T08:15:27.539Z,29.40
2022-12-08T08:17:54.719Z,24.70
2022-12-08T08:20:21.911Z,27.58
2022-12-08T08:22:50.635Z,24.58
2022-12-08T08:25:18.450Z,23.10
2022-12-08T08:27:46.625Z,21.08
2022-12-08T08:30:19.706Z,20.65
2022-12-08T08:32:52.392Z,22.63
2022-12-08T08:35:19.615Z,23.98
2022-12-08T08:37:49.174Z,23.80
2022-12-08T08:40:17.925Z,20.95
2022-12-08T08:42:45.113Z,20.85
2022-12-08T08:45:12.359Z,23.25
2022-12-08T08:47:39.559Z,24.08
2022-12-08T08:50:10.748Z,21.42
2022-12-08T08:52:37.901Z,21.73
2022-12-08T08:55:05.601Z,20.67
2022-12-08T08:57:32.859Z,20.75
2022-12-08T09:00:00.032Z,21.27
2022-12-08T09:02:27.302Z,18.33
2022-12-08T09:04:54.558Z,20.15
2022-12-08T09:07:21.787Z,17.48
2022-12-08T09:09:48.942Z,18.50
2022-12-08T09:12:16.046Z,20.02
2022-12-08T09:14:43.212Z,20.50
2022-12-08T09:17:10.372Z,25.63
2022-12-08T09:19:37.607Z,22.05
2022-12-08T09:22:05.155Z,24.67
2022-12-08T09:24:36.022Z,20.60
2022-12-08T09:27:03.190Z,22.25
2022-12-08T09:29:35.653Z,22.50
2022-12-08T09:32:03.649Z,19.83
2022-12-08T09:34:31.840Z,21.25
2022-12-08T09:36:59.875Z,19.48
2022-12-08T09:39:27.090Z,17.02
2022-12-08T09:42:06.776Z,17.33
2022-12-08T09:45:12.109Z,16.33
2022-12-08T09:50:56.945Z,19.50
2022-12-08T09:53:36.802Z,17.15
2022-12-08T09:56:29.969Z,23.13
2022-12-08T09:59:04.338Z,16.20
2022-12-08T10:04:00.516Z,19.88
2022-12-08T10:06:51.619Z,18.25
2022-12-08T10:09:29.653Z,16.83
2022-12-08T10:12:36.049Z,16.15
2022-12-08T10:15:27.304Z,18.30
2022-12-08T10:17:54.545Z,18.48
2022-12-08T10:20:24.068Z,19.60
2022-12-08T10:23:18.005Z,20.05
2022-12-08T10:25:49.867Z,20.90
2022-12-08T10:28:17.076Z,20.48
2022-12-08T10:30:45.208Z,25.65
2022-12-08T10:33:18.259Z,27.92
2022-12-08T10:35:58.396Z,26.35
2022-12-08T10:38:38.551Z,28.73
2022-12-08T10:41:11.851Z,24.98
2022-12-08T10:43:57.935Z,22.58
2022-12-08T10:46:26.712Z,26.55
2022-12-08T10:49:04.223Z,23.70
2022-12-08T10:51:35.226Z,19.33
2022-12-08T10:54:03.576Z,20.50
2022-12-08T10:56:31.150Z,22.17
2022-12-08T10:59:18.597Z,23.23
2022-12-08T11:01:48.450Z,25.15
2022-12-08T11:04:29.606Z,21.48
2022-12-08T11:06:56.924Z,21.55
2022-12-08T11:09:35.635Z,23.25
2022-12-08T11:12:13.985Z,25.75
2022-12-08T11:14:44.172Z,25.30
2022-12-08T11:17:26.813Z,22.67
2022-12-08T11:20:23.603Z,25.33
2022-12-08T11:22:55.300Z,22.23
2022-12-08T11:25:28.950Z,21.95
2022-12-08T11:28:00.670Z,28.83
2022-12-08T11:30:34.727Z,25.17
2022-12-08T11:33:16.387Z,26.77
2022-12-08T11:35:46.014Z,19.40
2022-12-08T11:38:24.083Z,18.48
2022-12-08T11:41:12.261Z,18.27
2022-12-08T11:44:13.652Z,14.65
2022-12-08T11:47:13.243Z,16.50
2022-12-08T11:52:26.975Z,14.75
2022-12-08T11:55:41.655Z,13.68
2022-12-08T11:58:39.678Z,12.55
2022-12-08T12:01:26.509Z,14.68
2022-12-08T12:04:17.282Z,15.52
2022-12-08T12:07:02.342Z,17.50
2022-12-08T12:10:18.331Z,18.00
2022-12-08T12:13:19.418Z,17.02
2022-12-08T12:16:14.368Z,14.95
2022-12-08T12:21:22.657Z,14.82
2022-12-08T12:24:36.177Z,15.25
2022-12-08T12:27:15.812Z,15.20
2022-12-08T12:29:55.990Z,15.38
2022-12-08T12:32:23.472Z,18.88
2022-12-08T12:34:56.915Z,26.42
2022-12-08T12:37:37.519Z,20.40
2022-12-08T12:40:26.051Z,18.95
2022-12-08T12:42:56.118Z,16.45
2022-12-08T12:45:34.774Z,15.65
2022-12-08T12:48:01.900Z,13.55
2022-12-08T12:50:35.279Z,16.50
2022-12-08T12:53:17.927Z,15.37
2022-12-08T12:55:58.061Z,14.43
2022-12-08T12:58:28.320Z,15.70
2022-12-08T13:01:21.602Z,15.60
2022-12-08T13:03:52.094Z,17.98
2022-12-08T13:06:44.644Z,16.88
2022-12-08T13:09:29.574Z,17.40
2022-12-08T13:11:59.771Z,16.55
2022-12-08T13:14:30.092Z,20.83
2022-12-08T13:16:59.055Z,18.75
2022-12-08T13:19:26.334Z,17.08
2022-12-08T13:21:53.607Z,16.85
2022-12-08T13:24:34.153Z,18.27
2022-12-08T13:27:04.320Z,18.33
2022-12-08T13:29:35.325Z,16.88
2022-12-08T13:32:09.657Z,28.08
2022-12-08T13:38:02.807Z,34.60
2022-12-08T13:40:34.332Z,27.92
2022-12-08T13:43:38.733Z,27.05
2022-12-08T13:47:02.752Z,32.95
2022-12-08T13:57:35.849Z,39.67
2022-12-08T14:00:17.483Z,38.35
2022-12-08T14:02:50.079Z,39.95
2022-12-08T14:05:26.297Z,41.15
2022-12-08T14:08:02.451Z,33.72
2022-12-08T14:10:31.944Z,38.05
2022-12-08T14:13:07.275Z,37.80
2022-12-08T14:15:38.322Z,36.70
2022-12-08T14:18:06.512Z,41.15
2022-12-08T14:20:51.828Z,36.97
2022-12-08T14:23:27.325Z,42.40
2022-12-08T14:25:54.903Z,40.63
2022-12-08T14:28:22.130Z,40.08
2022-12-08T14:30:49.751Z,46.92
2022-12-08T14:33:17.441Z,42.47
2022-12-08T14:35:49.686Z,43.10
2022-12-08T14:38:18.883Z,41.00
2022-12-08T14:41:04.519Z,43.08
2022-12-08T14:43:31.988Z,41.95
2022-12-08T14:46:19.435Z,44.10
2022-12-08T14:48:46.785Z,51.05
2022-12-08T14:51:20.192Z,45.55
2022-12-08T14:54:04.406Z,49.27
2022-12-08T14:56:42.583Z,42.63
2022-12-08T14:59:19.534Z,38.05
2022-12-08T15:01:47.778Z,37.85
2022-12-08T15:04:15.776Z,40.83
2022-12-08T15:07:07.616Z,39.13
2022-12-08T15:09:48.996Z,38.42
2022-12-08T15:12:26.804Z,40.75
2022-12-08T15:15:09.873Z,43.50
2022-12-08T15:17:44.687Z,47.63
2022-12-08T15:20:43.310Z,45.45
2022-12-08T15:23:27.523Z,48.80
2022-12-08T15:25:55.665Z,53.05
2022-12-08T15:28:30.133Z,55.25
2022-12-08T15:30:58.209Z,51.15
2022-12-08T15:33:27.344Z,57.85
2022-12-08T15:35:54.570Z,57.72
2022-12-08T15:38:27.145Z,58.00
2022-12-08T15:40:55.272Z,63.50
2022-12-08T15:43:22.523Z,52.65
2022-12-08T15:45:58.334Z,61.50
2022-12-08T15:48:28.789Z,64.07
2022-12-08T15:50:56.388Z,60.15
2022-12-08T15:53:23.741Z,61.83
2022-12-08T15:56:26.461Z,67.43
2022-12-08T15:58:53.504Z,63.75
2022-12-08T16:01:21.138Z,63.72
2022-12-08T16:09:36.319Z,65.15
2022-12-08T16:12:23.779Z,65.63
2022-12-08T16:17:39.600Z,61.88
2022-12-08T16:20:12.250Z,67.07
2022-12-08T16:23:07.614Z,70.55
2022-12-08T16:25:46.143Z,70.55
2022-12-08T16:28:52.128Z,76.80
2022-12-08T16:31:11.643Z,75.18
2022-12-08T16:36:09.500Z,76.25
2022-12-08T16:38:37.025Z,75.10
2022-12-08T16:41:30.438Z,94.03
2022-12-08T16:44:01.506Z,91.20
2022-12-08T16:46:29.912Z,99.22
2022-12-08T16:48:58.886Z,97.32
2022-12-08T16:51:27.909Z,88.05
2022-12-08T16:53:57.009Z,88.10
2022-12-08T16:56:30.634Z,89.45
2022-12-08T16:59:00.827Z,95.28
2022-12-08T17:01:28.112Z,107.65
2022-12-08T17:06:42.357Z,102.32
2022-12-08T17:09:09.508Z,95.53
2022-12-08T17:11:42.644Z,110.90
2022-12-08T17:14:12.602Z,103.20
2022-12-08T17:16:43.742Z,102.72
2022-12-08T17:19:12.878Z,103.45
2022-12-08T17:21:41.806Z,111.72
2022-12-08T17:24:12.962Z,104.20
2022-12-08T17:26:43.873Z,99.85
2022-12-08T17:29:11.162Z,109.85
2022-12-08T17:31:39.718Z,104.07
2022-12-08T17:34:12.799Z,106.93
2022-12-08T17:36:40.173Z,115.03
2022-12-08T17:39:11.031Z,110.63
2022-12-08T17:41:42.132Z,85.57
2022-12-08T17:44:14.000Z,100.40
2022-12-08T17:46:44.263Z,86.78
2022-12-08T17:49:22.742Z,90.90
2022-12-08T17:51:51.842Z,94.32
2022-12-08T17:54:19.764Z,95.72
2022-12-08T17:56:48.016Z,89.03
2022-12-08T17:59:18.538Z,106.80
2022-12-08T18:01:45.795Z,103.45
2022-12-08T18:04:14.013Z,114.95
2022-12-08T18:06:41.241Z,148.77
2022-12-08T18:09:08.772Z,169.18
2022-12-08T18:11:37.570Z,170.52
2022-12-08T18:14:09.831Z,155.27
2022-12-08T18:16:39.287Z,153.45
2022-12-08T18:19:09.577Z,144.40
2022-12-08T18:21:36.975Z,141.40
2022-12-08T18:24:45.184Z,121.15
2022-12-08T18:27:12.980Z,107.78
2022-12-08T18:29:40.261Z,114.72
2022-12-08T18:32:08.406Z,104.85
2022-12-08T18:34:35.780Z,111.40
2022-12-08T18:37:03.038Z,104.47
2022-12-08T18:39:32.211Z,110.15
2022-12-08T18:41:59.729Z,121.63
2022-12-08T18:44:27.100Z,117.40
2022-12-08T18:46:54.402Z,130.40
2022-12-08T18:49:21.648Z,133.98
2022-12-08T19:02:13.880Z,126.93
2022-12-08T19:29:07.843Z,98.93
2022-12-08T19:34:58.755Z,94.35
2022-12-08T19:37:31.836Z,100.72
2022-12-08T19:43:17.878Z,89.38
2022-12-08T19:45:56.145Z,82.85
2022-12-08T19:48:33.034Z,86.18
2022-12-08T19:51:47.678Z,75.35
2022-12-08T19:54:14.913Z,79.80
2022-12-08T19:56:44.509Z,75.55
2022-12-08T19:59:17.198Z,83.65
2022-12-08T20:02:02.937Z,68.72
2022-12-08T20:04:50.514Z,68.40
2022-12-08T20:07:18.775Z,60.03
2022-12-08T20:12:30.928Z,49.60
2022-12-08T20:15:15.272Z,52.50
2022-12-08T20:17:43.939Z,55.35
2022-12-08T20:20:16.971Z,49.53
2022-12-08T20:25:41.995Z,47.75
2022-12-08T20:31:05.651Z,49.03
2022-12-08T20:34:37.235Z,56.60
2022-12-08T20:37:28.310Z,50.25
2022-12-08T20:39:58.576Z,41.20
2022-12-08T20:42:34.157Z,34.40
2022-12-08T20:45:01.389Z,38.30
2022-12-08T20:47:31.981Z,97.38
2022-12-08T20:50:01.034Z,127.82
2022-12-08T20:52:51.731Z,175.55
2022-12-08T20:55:21.777Z,161.32
2022-12-08T20:58:08.723Z,148.88
2022-12-08T21:00:38.430Z,175.32
2022-12-08T21:03:21.483Z,180.80
2022-12-08T21:08:47.471Z,162.75
2022-12-08T21:11:25.090Z,171.70
2022-12-08T21:13:52.754Z,145.60
2022-12-08T21:16:20.429Z,122.88
2022-12-08T21:18:48.938Z,139.15
2022-12-08T21:21:18.796Z,126.15
2022-12-08T21:23:47.012Z,116.70
2022-12-08T21:26:21.122Z,119.35
2022-12-08T21:28:48.539Z,110.65
2022-12-08T21:31:18.921Z,106.88
2022-12-08T21:33:48.208Z,110.05
2022-12-08T21:36:21.391Z,103.72
2022-12-08T21:38:50.344Z,100.45
2022-12-08T21:41:41.646Z,99.82
2022-12-08T21:44:12.292Z,87.28
2022-12-08T21:46:41.051Z,92.40
2022-12-08T21:49:09.347Z,77.85
2022-12-08T21:51:42.444Z,89.90
2022-12-08T21:54:18.241Z,95.70
2022-12-08T21:57:15.269Z,88.13
2022-12-08T21:59:42.530Z,65.68
2022-12-08T22:02:17.944Z,73.53
2022-12-08T22:04:49.822Z,68.40
2022-12-08T22:07:17.430Z,70.05
2022-12-08T22:09:47.396Z,62.92
2022-12-08T22:12:16.787Z,67.78
2022-12-08T22:14:44.186Z,58.83
2022-12-08T22:17:11.723Z,62.20
2022-12-08T22:19:39.169Z,60.92
2022-12-08T22:22:06.447Z,63.00
2022-12-08T22:24:33.745Z,55.60
2022-12-08T22:27:01.151Z,60.10
2022-12-08T22:29:28.542Z,60.05
2022-12-08T22:31:55.956Z,53.72
2022-12-08T22:34:23.411Z,54.75
2022-12-08T22:36:50.851Z,60.28
2022-12-08T22:39:18.123Z,57.95
2022-12-08T22:41:45.593Z,56.72
2022-12-08T22:44:13.037Z,61.00
2022-12-08T22:46:40.539Z,59.30
2022-12-08T22:49:07.898Z,58.95
2022-12-08T22:51:38.172Z,61.35
2022-12-08T22:54:06.019Z,56.83
2022-12-08T22:56:33.204Z,54.60
2022-12-08T22:59:00.513Z,48.78
2022-12-08T23:01:30.371Z,50.78
2022-12-08T23:03:58.361Z,49.13
2022-12-08T23:06:26.030Z,51.13
2022-12-08T23:08:53.515Z,50.33
2022-12-08T23:11:22.681Z,61.15
2022-12-08T23:13:49.823Z,56.80
2022-12-08T23:16:20.139Z,43.15
2022-12-08T23:18:47.398Z,52.15
2022-12-08T23:21:17.724Z,42.90
2022-12-08T23:23:45.106Z,44.15
2022-12-08T23:26:22.600Z,42.88
2022-12-08T23:28:50.101Z,36.05
2022-12-08T23:31:17.612Z,36.25
2022-12-08T23:33:44.974Z,47.58
2022-12-08T23:36:12.774Z,45.10
2022-12-08T23:38:41.046Z,46.33
2022-12-08T23:41:09.104Z,52.50
2022-12-08T23:43:36.544Z,48.13
2022-12-08T23:46:04.043Z,45.58
2022-12-08T23:48:34.579Z,45.60
2022-12-08T23:51:02.271Z,46.80
2022-12-08T23:53:31.651Z,43.50
2022-12-08T23:56:03.723Z,42.97
2022-12-08T23:58:31.362Z,43.55
